createdAt,value
2022-09-23T00:00:43.086Z,4.35
2022-09-23T00:01:46.520Z,5.82
2022-09-23T00:02:49.860Z,4.20
2022-09-23T00:03:51.726Z,5.20
2022-09-23T00:04:54.659Z,4.82
2022-09-23T00:06:00.608Z,4.90
2022-09-23T00:07:03.529Z,5.13
2022-09-23T00:08:06.500Z,5.50
2022-09-23T00:09:09.364Z,4.78
2022-09-23T00:10:11.174Z,5.15
2022-09-23T00:11:16.052Z,4.82
2022-09-23T00:12:18.167Z,5.28
2022-09-23T00:13:20.997Z,5.03
2022-09-23T00:14:22.893Z,4.97
2022-09-23T00:15:29.977Z,4.82
2022-09-23T00:16:34.573Z,5.55
2022-09-23T00:17:37.566Z,5.32
2022-09-23T00:18:39.800Z,5.05
2022-09-23T00:19:42.824Z,5.22
2022-09-23T00:20:44.769Z,5.07
2022-09-23T00:21:47.610Z,5.72
2022-09-23T00:22:49.366Z,5.70
2022-09-23T00:23:52.318Z,5.25
2022-09-23T00:24:54.121Z,5.35
2022-09-23T00:25:57.838Z,5.30
2022-09-23T00:26:59.955Z,4.50
2022-09-23T00:28:03.175Z,4.50
2022-09-23T00:29:05.070Z,5.40
2022-09-23T00:30:10.058Z,5.28
2022-09-23T00:31:15.278Z,4.40
2022-09-23T00:32:18.141Z,4.60
2022-09-23T00:33:20.097Z,4.00
2022-09-23T00:34:23.177Z,4.75
2022-09-23T00:35:24.980Z,4.60
2022-09-23T00:36:29.357Z,4.20
2022-09-23T00:37:31.544Z,4.70
2022-09-23T00:38:34.901Z,4.85
2022-09-23T00:39:36.724Z,4.53
2022-09-23T00:40:43.948Z,5.03
2022-09-23T00:41:45.852Z,4.40
2022-09-23T00:42:51.187Z,4.50
2022-09-23T00:43:54.706Z,4.55
2022-09-23T00:44:59.136Z,4.97
2022-09-23T00:46:01.066Z,4.75
2022-09-23T00:47:05.597Z,5.28
2022-09-23T00:48:14.714Z,5.68
2022-09-23T00:49:26.014Z,5.28
2022-09-23T00:50:31.313Z,4.65
2022-09-23T00:51:37.750Z,4.85
2022-09-23T00:52:39.690Z,4.95
2022-09-23T00:53:43.045Z,5.30
2022-09-23T00:54:46.273Z,5.35
2022-09-23T00:55:51.542Z,5.45
2022-09-23T00:56:54.315Z,4.85
2022-09-23T00:58:00.146Z,5.30
2022-09-23T00:59:03.043Z,5.55
2022-09-23T01:00:08.292Z,4.28
2022-09-23T01:01:12.101Z,5.00
2022-09-23T01:02:18.331Z,4.75
2022-09-23T01:03:22.889Z,4.47
2022-09-23T01:04:29.241Z,4.47
2022-09-23T01:05:31.239Z,4.05
2022-09-23T01:06:34.081Z,5.28
2022-09-23T01:07:36.052Z,4.68
2022-09-23T01:08:39.034Z,5.00
2022-09-23T01:09:41.257Z,5.13
2022-09-23T01:10:56.456Z,4.28
2022-09-23T01:12:10.434Z,4.13
2022-09-23T01:13:21.180Z,4.80
2022-09-23T01:14:36.953Z,4.93
2022-09-23T01:15:45.811Z,4.65
2022-09-23T01:16:54.478Z,4.35
2022-09-23T01:18:09.529Z,4.63
2022-09-23T01:19:34.311Z,3.97
2022-09-23T01:20:59.382Z,4.07
2022-09-23T01:22:10.695Z,4.78
2022-09-23T01:23:37.754Z,3.65
2022-09-23T01:24:48.987Z,4.07
2022-09-23T01:26:07.999Z,4.22
2022-09-23T01:27:25.196Z,4.05
2022-09-23T01:28:40.988Z,4.20
2022-09-23T01:30:06.664Z,3.50
2022-09-23T01:31:17.451Z,4.10
2022-09-23T01:32:31.251Z,4.05
2022-09-23T01:33:40.971Z,3.65
2022-09-23T01:34:49.853Z,3.20
2022-09-23T01:36:08.009Z,3.45
2022-09-23T01:37:14.152Z,4.47
2022-09-23T01:38:24.921Z,3.70
2022-09-23T01:39:35.216Z,3.30
2022-09-23T01:40:46.537Z,4.22
2022-09-23T01:41:59.944Z,3.20
2022-09-23T01:43:06.260Z,3.10
2022-09-23T01:44:12.486Z,3.40
2022-09-23T01:45:20.118Z,3.55
2022-09-23T01:46:31.632Z,4.60
2022-09-23T01:47:38.262Z,3.45
2022-09-23T01:48:47.667Z,3.72
2022-09-23T01:49:54.826Z,3.88
2022-09-23T01:51:04.536Z,3.70
2022-09-23T01:52:15.445Z,3.83
2022-09-23T01:53:24.542Z,3.85
2022-09-23T01:54:34.782Z,3.65
2022-09-23T01:55:40.319Z,3.70
2022-09-23T01:56:48.457Z,3.90
2022-09-23T01:57:55.472Z,3.70
2022-09-23T01:59:04.428Z,3.42
2022-09-23T02:00:10.472Z,3.60
2022-09-23T02:01:22.694Z,3.80
2022-09-23T02:02:32.794Z,3.95
2022-09-23T02:03:42.599Z,3.42
2022-09-23T02:04:48.032Z,4.20
2022-09-23T02:05:58.100Z,3.40
2022-09-23T02:07:03.559Z,3.80
2022-09-23T02:08:10.274Z,3.50
2022-09-23T02:09:15.815Z,3.58
2022-09-23T02:10:25.076Z,3.45
2022-09-23T02:11:27.544Z,3.40
2022-09-23T02:12:34.943Z,3.30
2022-09-23T02:13:41.175Z,4.18
2022-09-23T02:14:47.837Z,3.70
2022-09-23T02:15:53.828Z,3.40
2022-09-23T02:16:59.615Z,3.85
2022-09-23T02:18:08.719Z,3.78
2022-09-23T02:19:15.250Z,3.40
2022-09-23T02:20:22.014Z,3.47
2022-09-23T02:21:28.767Z,3.67
2022-09-23T02:22:39.323Z,4.57
2022-09-23T02:23:46.799Z,3.38
2022-09-23T02:24:49.328Z,3.97
2022-09-23T02:25:59.080Z,3.70
2022-09-23T02:27:13.246Z,3.92
2022-09-23T02:28:19.011Z,3.47
2022-09-23T02:29:26.854Z,3.92
2022-09-23T02:30:32.233Z,3.88
2022-09-23T02:31:41.484Z,3.20
2022-09-23T02:32:52.216Z,3.80
2022-09-23T02:34:01.426Z,3.45
2022-09-23T02:35:16.086Z,3.85
2022-09-23T02:36:26.641Z,3.20
2022-09-23T02:37:38.844Z,3.00
2022-09-23T02:38:45.115Z,3.10
2022-09-23T02:39:58.642Z,4.05
2022-09-23T02:41:09.432Z,3.15
2022-09-23T02:42:16.539Z,3.42
2022-09-23T02:43:27.883Z,3.17
2022-09-23T02:44:30.099Z,3.08
2022-09-23T02:45:33.714Z,3.53
2022-09-23T02:46:37.000Z,3.53
2022-09-23T02:47:44.992Z,3.55
2022-09-23T02:48:53.203Z,3.92
2022-09-23T02:49:57.361Z,3.10
2022-09-23T02:51:02.197Z,3.13
2022-09-23T02:52:07.666Z,3.13
2022-09-23T02:53:09.724Z,3.58
2022-09-23T02:54:15.914Z,2.90
2022-09-23T02:55:22.146Z,3.40
2022-09-23T02:56:25.831Z,3.75
2022-09-23T02:57:28.372Z,2.97
2022-09-23T02:58:31.332Z,3.00
2022-09-23T02:59:34.581Z,3.30
2022-09-23T03:00:54.509Z,2.90
2022-09-23T03:02:20.788Z,2.35
2022-09-23T03:03:41.822Z,2.53
2022-09-23T03:04:52.493Z,2.75
2022-09-23T03:05:59.851Z,2.92
2022-09-23T03:07:06.263Z,3.15
2022-09-23T03:08:25.988Z,2.95
2022-09-23T03:09:33.218Z,2.90
2022-09-23T03:10:44.852Z,3.45
2022-09-23T03:11:53.069Z,3.10
2022-09-23T03:13:07.002Z,2.92
2022-09-23T03:14:17.743Z,2.80
2022-09-23T03:15:27.809Z,2.70
2022-09-23T03:16:37.200Z,2.75
2022-09-23T03:17:48.053Z,2.80
2022-09-23T03:18:55.610Z,3.30
2022-09-23T03:20:04.729Z,2.50
2022-09-23T03:21:12.230Z,2.90
2022-09-23T03:22:20.052Z,2.42
2022-09-23T03:23:26.086Z,3.05
2022-09-23T03:24:32.204Z,2.80
2022-09-23T03:25:37.311Z,2.60
2022-09-23T03:26:44.464Z,2.58
2022-09-23T03:27:46.306Z,2.70
2022-09-23T03:28:51.267Z,3.00
2022-09-23T03:29:55.230Z,3.40
2022-09-23T03:31:00.996Z,2.70
2022-09-23T03:32:06.985Z,3.45
2022-09-23T03:33:16.661Z,2.75
2022-09-23T03:34:22.875Z,2.80
2022-09-23T03:35:28.897Z,2.85
2022-09-23T03:36:52.044Z,2.53
2022-09-23T03:38:02.620Z,2.70
2022-09-23T03:39:10.324Z,3.13
2022-09-23T03:40:17.233Z,2.67
2022-09-23T03:41:29.312Z,3.05
2022-09-23T03:42:34.266Z,3.20
2022-09-23T03:43:38.929Z,3.05
2022-09-23T03:44:45.373Z,2.80
2022-09-23T03:45:48.961Z,3.05
2022-09-23T03:46:50.836Z,3.40
2022-09-23T03:47:53.636Z,3.38
2022-09-23T03:48:59.847Z,3.22
2022-09-23T03:50:02.927Z,3.20
2022-09-23T03:51:19.156Z,3.10
2022-09-23T03:52:25.719Z,3.10
2022-09-23T03:53:28.913Z,2.92
2022-09-23T03:54:32.344Z,2.75
2022-09-23T03:55:34.753Z,3.53
2022-09-23T03:56:37.884Z,3.00
2022-09-23T03:57:39.762Z,2.97
2022-09-23T03:58:42.623Z,2.83
2022-09-23T03:59:44.486Z,3.50
2022-09-23T04:00:49.286Z,2.40
2022-09-23T04:01:58.521Z,3.10
2022-09-23T04:03:01.576Z,2.47
2022-09-23T04:04:03.399Z,3.10
2022-09-23T04:05:07.619Z,3.30
2022-09-23T04:06:09.835Z,2.42
2022-09-23T04:07:13.433Z,2.55
2022-09-23T04:08:16.636Z,2.70
2022-09-23T04:09:19.446Z,3.28
2022-09-23T04:10:21.284Z,2.80
2022-09-23T04:11:24.214Z,2.80
2022-09-23T04:12:26.042Z,2.72
2022-09-23T04:13:29.343Z,3.55
2022-09-23T04:14:31.268Z,3.25
2022-09-23T04:15:34.093Z,3.13
2022-09-23T04:16:36.020Z,3.28
2022-09-23T04:17:39.078Z,3.78
2022-09-23T04:18:41.123Z,2.92
2022-09-23T04:19:44.992Z,3.05
2022-09-23T04:20:47.045Z,3.70
2022-09-23T04:21:50.118Z,3.60
2022-09-23T04:22:51.988Z,2.78
2022-09-23T04:23:56.124Z,3.30
2022-09-23T04:24:57.960Z,3.17
2022-09-23T04:26:00.746Z,3.20
2022-09-23T04:27:02.814Z,3.03
2022-09-23T04:28:05.538Z,3.25
2022-09-23T04:29:08.176Z,3.55
2022-09-23T04:30:12.094Z,3.60
2022-09-23T04:31:14.152Z,3.40
2022-09-23T04:32:17.051Z,3.80
2022-09-23T04:33:19.169Z,2.97
2022-09-23T04:34:22.360Z,3.05
2022-09-23T04:35:24.302Z,3.30
2022-09-23T04:36:29.119Z,3.63
2022-09-23T04:37:30.910Z,3.60
2022-09-23T04:38:33.774Z,2.95
2022-09-23T04:39:37.029Z,3.33
2022-09-23T04:40:40.151Z,3.80
2022-09-23T04:41:42.305Z,3.10
2022-09-23T04:42:45.122Z,3.70
2022-09-23T04:43:47.248Z,3.13
2022-09-23T04:44:50.190Z,3.35
2022-09-23T04:45:59.525Z,3.10
2022-09-23T04:47:02.716Z,3.00
2022-09-23T04:48:04.667Z,4.25
2022-09-23T04:49:07.870Z,3.55
2022-09-23T04:50:10.142Z,3.20
2022-09-23T04:51:14.883Z,3.65
2022-09-23T04:52:16.922Z,3.20
2022-09-23T04:53:20.104Z,3.30
2022-09-23T04:54:23.015Z,3.25
2022-09-23T04:55:26.264Z,3.20
2022-09-23T04:56:32.564Z,3.22
2022-09-23T04:57:34.518Z,3.85
2022-09-23T04:58:37.719Z,3.35
2022-09-23T04:59:39.733Z,3.45
2022-09-23T05:00:42.622Z,3.33
2022-09-23T05:01:44.549Z,3.20
2022-09-23T05:02:49.608Z,3.20
2022-09-23T05:03:52.983Z,4.00
2022-09-23T05:04:55.850Z,3.00
2022-09-23T05:05:59.930Z,3.60
2022-09-23T05:07:03.608Z,3.08
2022-09-23T05:08:05.514Z,3.65
2022-09-23T05:09:09.382Z,3.15
2022-09-23T05:10:11.757Z,3.08
2022-09-23T05:11:15.953Z,3.25
2022-09-23T05:12:18.913Z,3.67
2022-09-23T05:13:20.742Z,3.58
2022-09-23T05:14:23.561Z,3.70
2022-09-23T05:15:25.397Z,3.38
2022-09-23T05:16:28.756Z,3.30
2022-09-23T05:17:31.202Z,3.17
2022-09-23T05:18:34.893Z,3.00
2022-09-23T05:19:37.698Z,3.40
2022-09-23T05:20:39.512Z,3.55
2022-09-23T05:21:42.683Z,3.80
2022-09-23T05:22:45.847Z,3.40
2022-09-23T05:23:49.723Z,3.42
2022-09-23T05:24:51.603Z,3.85
2022-09-23T05:25:59.017Z,3.35
2022-09-23T05:27:05.297Z,3.45
2022-09-23T05:28:07.102Z,2.97
2022-09-23T05:29:10.161Z,3.35
2022-09-23T05:30:12.517Z,3.65
2022-09-23T05:31:20.287Z,3.38
2022-09-23T05:32:23.635Z,3.38
2022-09-23T05:33:25.465Z,3.00
2022-09-23T05:34:28.412Z,3.65
2022-09-23T05:35:30.270Z,3.60
2022-09-23T05:36:38.363Z,3.20
2022-09-23T05:37:40.718Z,3.20
2022-09-23T05:38:43.641Z,3.60
2022-09-23T05:39:45.420Z,3.65
2022-09-23T05:40:48.275Z,3.28
2022-09-23T05:41:51.130Z,3.85
2022-09-23T05:42:54.394Z,3.22
2022-09-23T05:43:57.392Z,3.10
2022-09-23T05:44:59.246Z,3.40
2022-09-23T05:46:08.013Z,3.70
2022-09-23T05:47:10.280Z,3.17
2022-09-23T05:48:13.145Z,3.88
2022-09-23T05:49:14.943Z,3.88
2022-09-23T05:50:17.720Z,3.70
2022-09-23T05:51:21.429Z,3.55
2022-09-23T05:52:25.636Z,3.50
2022-09-23T05:53:29.294Z,4.30
2022-09-23T05:54:32.144Z,3.25
2022-09-23T05:55:35.014Z,4.10
2022-09-23T05:56:38.404Z,3.63
2022-09-23T05:57:40.294Z,4.15
2022-09-23T05:58:45.143Z,3.42
2022-09-23T05:59:48.376Z,4.15
2022-09-23T06:00:51.027Z,3.85
2022-09-23T06:01:56.497Z,3.60
2022-09-23T06:02:58.530Z,3.35
2022-09-23T06:04:02.647Z,4.40
2022-09-23T06:05:05.140Z,4.20
2022-09-23T06:06:08.690Z,3.42
2022-09-23T06:07:11.669Z,3.85
2022-09-23T06:08:13.652Z,3.80
2022-09-23T06:09:16.563Z,4.57
2022-09-23T06:10:18.381Z,3.55
2022-09-23T06:11:21.635Z,4.00
2022-09-23T06:12:25.076Z,4.07
2022-09-23T06:13:27.389Z,3.58
2022-09-23T06:14:31.581Z,4.40
2022-09-23T06:15:33.487Z,3.95
2022-09-23T06:16:36.931Z,3.50
2022-09-23T06:17:39.663Z,3.50
2022-09-23T06:18:42.790Z,3.90
2022-09-23T06:19:45.609Z,3.88
2022-09-23T06:20:47.992Z,3.30
2022-09-23T06:21:50.799Z,3.70
2022-09-23T06:22:55.542Z,3.38
2022-09-23T06:24:00.125Z,3.75
2022-09-23T06:25:02.053Z,3.85
2022-09-23T06:26:06.705Z,3.10
2022-09-23T06:27:09.638Z,3.30
2022-09-23T06:28:12.500Z,3.70
2022-09-23T06:29:15.412Z,3.40
2022-09-23T06:30:18.718Z,3.60
2022-09-23T06:31:21.537Z,3.33
2022-09-23T06:32:24.480Z,3.50
2022-09-23T06:33:35.726Z,2.90
2022-09-23T06:34:51.165Z,4.10
2022-09-23T06:35:59.894Z,3.05
2022-09-23T06:37:13.662Z,3.42
2022-09-23T06:38:18.917Z,3.60
2022-09-23T06:39:21.801Z,3.67
2022-09-23T06:40:25.244Z,4.18
2022-09-23T06:41:28.136Z,3.45
2022-09-23T06:42:34.095Z,3.60
2022-09-23T06:43:36.018Z,3.20
2022-09-23T06:44:39.132Z,3.50
2022-09-23T06:45:42.410Z,4.00
2022-09-23T06:46:45.303Z,3.42
2022-09-23T06:47:51.099Z,3.25
2022-09-23T06:48:52.974Z,3.60
2022-09-23T06:49:55.815Z,3.42
2022-09-23T06:51:02.403Z,3.35
2022-09-23T06:52:06.153Z,3.63
2022-09-23T06:53:08.219Z,3.80
2022-09-23T06:54:11.242Z,3.67
2022-09-23T06:55:13.236Z,3.60
2022-09-23T06:56:17.764Z,4.18
2022-09-23T06:57:20.586Z,3.13
2022-09-23T06:58:22.376Z,3.25
2022-09-23T06:59:25.311Z,3.22
2022-09-23T07:00:27.251Z,3.45
2022-09-23T07:01:31.542Z,3.90
2022-09-23T07:02:33.551Z,3.30
2022-09-23T07:03:37.091Z,3.40
2022-09-23T07:04:39.966Z,3.20
2022-09-23T07:05:42.176Z,2.97
2022-09-23T07:06:44.979Z,3.70
2022-09-23T07:07:46.870Z,2.90
2022-09-23T07:08:51.140Z,3.35
2022-09-23T07:09:52.951Z,4.03
2022-09-23T07:10:56.978Z,3.45
2022-09-23T07:11:59.753Z,3.35
2022-09-23T07:13:01.996Z,2.75
2022-09-23T07:14:04.810Z,2.95
2022-09-23T07:15:07.930Z,3.40
2022-09-23T07:16:12.127Z,3.50
2022-09-23T07:17:16.279Z,3.15
2022-09-23T07:18:18.230Z,3.67
2022-09-23T07:19:21.063Z,3.00
2022-09-23T07:20:23.331Z,3.53
2022-09-23T07:21:27.829Z,3.30
2022-09-23T07:22:29.632Z,2.55
2022-09-23T07:23:33.488Z,3.22
2022-09-23T07:24:36.253Z,3.60
2022-09-23T07:25:38.272Z,3.50
2022-09-23T07:26:45.452Z,3.65
2022-09-23T07:27:48.775Z,2.65
2022-09-23T07:28:56.836Z,2.50
2022-09-23T07:29:58.906Z,3.67
2022-09-23T07:31:07.038Z,2.85
2022-09-23T07:32:13.964Z,3.67
2022-09-23T07:33:30.830Z,3.05
2022-09-23T07:34:35.121Z,2.90
2022-09-23T07:35:39.798Z,3.15
2022-09-23T07:36:42.699Z,2.65
2022-09-23T07:37:46.180Z,3.17
2022-09-23T07:38:49.155Z,3.40
2022-09-23T07:39:52.173Z,3.50
2022-09-23T07:40:54.094Z,3.17
2022-09-23T07:41:56.949Z,3.20
2022-09-23T07:42:59.544Z,3.13
2022-09-23T07:44:03.400Z,3.75
2022-09-23T07:45:07.519Z,3.45
2022-09-23T07:46:12.608Z,3.30
2022-09-23T07:47:15.661Z,3.20
2022-09-23T07:48:19.832Z,3.22
2022-09-23T07:49:22.800Z,4.30
2022-09-23T07:50:24.710Z,5.45
2022-09-23T07:51:34.699Z,4.70
2022-09-23T07:52:38.382Z,5.00
2022-09-23T07:53:41.258Z,3.28
2022-09-23T07:54:44.105Z,3.28
2022-09-23T07:55:52.216Z,2.90
2022-09-23T07:56:55.068Z,2.90
2022-09-23T07:57:56.982Z,2.90
2022-09-23T07:59:04.028Z,3.17
2022-09-23T08:00:06.942Z,3.40
2022-09-23T08:01:14.660Z,3.72
2022-09-23T08:02:16.916Z,2.92
2022-09-23T08:03:21.945Z,2.63
2022-09-23T08:04:28.293Z,2.65
2022-09-23T08:05:30.243Z,2.60
2022-09-23T08:06:33.574Z,2.63
2022-09-23T08:07:35.465Z,2.88
2022-09-23T08:08:40.385Z,2.72
2022-09-23T08:09:44.749Z,2.83
2022-09-23T08:10:46.750Z,3.05
2022-09-23T08:11:50.677Z,2.63
2022-09-23T08:12:53.511Z,2.80
2022-09-23T08:13:55.990Z,2.60
2022-09-23T08:15:00.389Z,2.80
2022-09-23T08:16:02.718Z,2.75
2022-09-23T08:17:05.643Z,2.53
2022-09-23T08:18:07.474Z,2.75
2022-09-23T08:19:12.525Z,2.70
2022-09-23T08:20:34.462Z,2.83
2022-09-23T08:21:37.655Z,2.80
2022-09-23T08:22:39.555Z,3.13
2022-09-23T08:23:42.462Z,3.15
2022-09-23T08:24:45.326Z,2.63
2022-09-23T08:25:48.341Z,3.60
2022-09-23T08:26:53.347Z,2.70
2022-09-23T08:27:55.335Z,2.40
2022-09-23T08:28:58.260Z,2.70
2022-09-23T08:30:00.650Z,2.97
2022-09-23T08:31:03.579Z,2.85
2022-09-23T08:32:06.564Z,3.00
2022-09-23T08:33:08.462Z,2.65
2022-09-23T08:34:13.258Z,2.70
2022-09-23T08:35:15.470Z,3.20
2022-09-23T08:36:18.331Z,2.70
2022-09-23T08:37:20.379Z,2.95
2022-09-23T08:38:23.196Z,2.80
2022-09-23T08:39:26.100Z,2.42
2022-09-23T08:40:28.115Z,2.65
2022-09-23T08:41:40.801Z,3.00
2022-09-23T08:42:45.407Z,2.00
2022-09-23T08:43:51.142Z,2.40
2022-09-23T08:44:57.106Z,2.20
2022-09-23T08:46:05.166Z,2.42
2022-09-23T08:47:14.974Z,2.97
2022-09-23T08:48:23.315Z,2.88
2022-09-23T08:49:32.615Z,2.60
2022-09-23T08:50:42.338Z,2.67
2022-09-23T08:51:47.949Z,2.03
2022-09-23T08:52:54.929Z,3.33
2022-09-23T08:54:00.241Z,2.70
2022-09-23T08:55:04.438Z,2.47
2022-09-23T08:56:14.125Z,2.92
2022-09-23T08:57:39.489Z,3.00
2022-09-23T08:58:54.843Z,3.20
2022-09-23T08:59:57.673Z,3.20
2022-09-23T09:01:11.108Z,2.70
2022-09-23T09:02:18.040Z,2.70
2022-09-23T09:03:24.910Z,3.05
2022-09-23T09:04:39.830Z,2.78
2022-09-23T09:05:50.810Z,2.63
2022-09-23T09:07:24.563Z,2.70
2022-09-23T09:08:29.725Z,2.63
2022-09-23T09:09:41.769Z,2.80
2022-09-23T09:10:47.336Z,2.78
2022-09-23T09:11:54.111Z,2.85
2022-09-23T09:13:04.401Z,2.65
2022-09-23T09:14:18.434Z,2.75
2022-09-23T09:15:24.645Z,2.50
2022-09-23T09:16:59.594Z,2.85
2022-09-23T09:18:07.708Z,2.75
2022-09-23T09:19:16.528Z,4.18
2022-09-23T09:20:35.230Z,3.80
2022-09-23T09:21:42.497Z,3.42
2022-09-23T09:22:54.036Z,2.80
2022-09-23T09:23:57.855Z,2.80
2022-09-23T09:25:07.412Z,3.20
2022-09-23T09:26:22.463Z,3.70
2022-09-23T09:27:24.513Z,3.70
2022-09-23T09:28:33.919Z,2.80
2022-09-23T09:29:42.141Z,3.83
2022-09-23T09:30:48.524Z,4.88
2022-09-23T09:31:51.890Z,3.30
2022-09-23T09:33:01.050Z,3.05
2022-09-23T09:34:07.405Z,2.63
2022-09-23T09:35:22.623Z,3.10
2022-09-23T09:36:37.261Z,3.15
2022-09-23T09:37:46.789Z,4.45
2022-09-23T09:38:51.046Z,3.53
2022-09-23T09:39:52.966Z,3.60
2022-09-23T09:41:01.307Z,3.58
2022-09-23T09:42:06.489Z,3.20
2022-09-23T09:43:09.497Z,3.05
2022-09-23T09:44:24.184Z,4.10
2022-09-23T09:45:42.778Z,2.90
2022-09-23T09:46:55.304Z,3.60
2022-09-23T09:48:07.492Z,3.78
2022-09-23T09:49:14.529Z,3.47
2022-09-23T09:50:22.146Z,3.55
2022-09-23T09:51:25.521Z,3.25
2022-09-23T09:52:31.773Z,3.72
2022-09-23T09:53:35.740Z,3.53
2022-09-23T09:54:39.096Z,3.47
2022-09-23T09:55:42.797Z,3.78
2022-09-23T09:56:45.183Z,4.20
2022-09-23T09:57:53.596Z,4.05
2022-09-23T09:59:00.227Z,3.83
2022-09-23T10:00:20.639Z,3.72
2022-09-23T10:01:25.806Z,2.97
2022-09-23T10:02:30.969Z,3.70
2022-09-23T10:03:38.523Z,4.15
2022-09-23T10:04:42.255Z,4.03
2022-09-23T10:05:49.679Z,3.50
2022-09-23T10:07:08.152Z,4.03
2022-09-23T10:08:24.724Z,3.30
2022-09-23T10:09:33.520Z,4.00
2022-09-23T10:10:36.435Z,3.15
2022-09-23T10:11:40.437Z,4.45
2022-09-23T10:12:46.681Z,3.40
2022-09-23T10:14:05.372Z,3.60
2022-09-23T10:15:28.391Z,4.20
2022-09-23T10:16:32.416Z,4.05
2022-09-23T10:17:35.536Z,3.75
2022-09-23T10:18:39.282Z,4.40
2022-09-23T10:19:46.789Z,3.70
2022-09-23T10:20:49.175Z,3.53
2022-09-23T10:21:59.799Z,3.90
2022-09-23T10:23:07.140Z,3.65
2022-09-23T10:24:23.586Z,3.80
2022-09-23T10:25:27.573Z,4.60
2022-09-23T10:26:33.069Z,3.63
2022-09-23T10:27:38.726Z,3.65
2022-09-23T10:28:47.021Z,3.33
2022-09-23T10:29:52.270Z,3.65
2022-09-23T10:31:04.786Z,3.33
2022-09-23T10:32:28.366Z,3.60
2022-09-23T10:33:32.766Z,3.92
2022-09-23T10:34:35.940Z,3.63
2022-09-23T10:35:57.234Z,4.15
2022-09-23T10:37:05.089Z,3.80
2022-09-23T10:38:10.744Z,3.83
2022-09-23T10:39:32.630Z,3.60
2022-09-23T10:40:56.520Z,3.55
2022-09-23T10:42:22.439Z,3.63
2022-09-23T10:43:49.516Z,3.45
2022-09-23T10:45:32.493Z,4.05
2022-09-23T10:46:41.613Z,5.15
2022-09-23T10:47:54.940Z,3.88
2022-09-23T10:49:25.001Z,2.83
2022-09-23T10:50:38.368Z,3.60
2022-09-23T10:51:48.170Z,3.40
2022-09-23T10:53:05.446Z,4.13
2022-09-23T10:54:14.379Z,4.72
2022-09-23T10:55:34.722Z,4.00
2022-09-23T10:56:44.003Z,5.75
2022-09-23T10:58:05.156Z,4.88
2022-09-23T10:59:40.152Z,4.07
2022-09-23T11:00:52.082Z,3.33
2022-09-23T11:02:08.626Z,3.30
2022-09-23T11:03:42.959Z,4.35
2022-09-23T11:05:19.075Z,3.90
2022-09-23T11:06:31.954Z,3.00
2022-09-23T11:07:38.689Z,3.40
2022-09-23T11:08:57.739Z,4.13
2022-09-23T11:10:44.941Z,3.45
2022-09-23T11:12:03.562Z,3.60
2022-09-23T11:13:14.431Z,4.05
2022-09-23T11:14:34.050Z,4.40
2022-09-23T11:15:49.799Z,4.50
2022-09-23T11:17:14.593Z,4.32
2022-09-23T11:18:44.871Z,4.28
2022-09-23T11:20:06.016Z,4.47
2022-09-23T11:21:26.426Z,4.25
2022-09-23T11:22:46.122Z,4.60
2022-09-23T11:24:12.106Z,4.38
2022-09-23T11:25:30.203Z,3.72
2022-09-23T11:26:46.120Z,3.83
2022-09-23T11:28:09.796Z,5.25
2022-09-23T11:29:29.155Z,4.00
2022-09-23T11:30:43.949Z,3.85
2022-09-23T11:31:59.669Z,3.60
2022-09-23T11:33:18.372Z,3.92
2022-09-23T11:34:39.327Z,4.70
2022-09-23T11:35:49.138Z,3.65
2022-09-23T11:36:57.144Z,3.60
2022-09-23T11:38:07.242Z,4.25
2022-09-23T11:39:18.345Z,4.43
2022-09-23T11:40:27.763Z,3.72
2022-09-23T11:41:35.393Z,4.05
2022-09-23T11:42:46.888Z,3.22
2022-09-23T11:43:55.396Z,4.10
2022-09-23T11:45:01.244Z,3.80
2022-09-23T11:46:09.610Z,4.18
2022-09-23T11:47:22.145Z,4.95
2022-09-23T11:48:31.046Z,3.65
2022-09-23T11:49:39.257Z,3.40
2022-09-23T11:50:47.614Z,4.80
2022-09-23T11:52:03.568Z,4.20
2022-09-23T11:53:14.102Z,3.40
2022-09-23T11:54:21.135Z,4.60
2022-09-23T11:55:27.877Z,4.25
2022-09-23T11:56:36.357Z,4.13
2022-09-23T11:57:49.511Z,4.30
2022-09-23T11:59:02.266Z,4.63
2022-09-23T12:00:06.879Z,4.03
2022-09-23T12:01:14.559Z,4.82
2022-09-23T12:02:30.628Z,3.90
2022-09-23T12:03:44.754Z,3.95
2022-09-23T12:04:57.512Z,4.57
2022-09-23T12:06:05.165Z,4.90
2022-09-23T12:07:15.842Z,4.88
2022-09-23T12:08:25.494Z,4.25
2022-09-23T12:09:56.748Z,4.25
2022-09-23T12:11:06.075Z,4.28
2022-09-23T12:12:18.853Z,4.95
2022-09-23T12:13:29.734Z,4.80
2022-09-23T12:14:42.499Z,4.80
2022-09-23T12:16:01.963Z,4.68
2022-09-23T12:17:17.550Z,5.20
2022-09-23T12:18:37.346Z,4.50
2022-09-23T12:20:03.185Z,5.47
2022-09-23T12:21:48.636Z,4.50
2022-09-23T12:22:57.933Z,5.05
2022-09-23T12:24:19.251Z,4.30
2022-09-23T12:25:35.558Z,5.18
2022-09-23T12:26:39.738Z,5.10
2022-09-23T12:27:49.759Z,4.32
2022-09-23T12:28:56.281Z,5.30
2022-09-23T12:30:03.685Z,5.22
2022-09-23T12:31:12.534Z,4.43
2022-09-23T12:32:18.279Z,5.28
2022-09-23T12:33:24.825Z,4.53
2022-09-23T12:34:31.402Z,4.53
2022-09-23T12:35:41.260Z,5.18
2022-09-23T12:36:44.703Z,5.57
2022-09-23T12:37:47.752Z,5.65
2022-09-23T12:38:53.773Z,5.25
2022-09-23T12:40:02.091Z,4.25
2022-09-23T12:41:21.979Z,4.50
2022-09-23T12:42:26.661Z,5.07
2022-09-23T12:43:35.618Z,5.35
2022-09-23T12:44:41.877Z,4.63
2022-09-23T12:45:45.527Z,5.30
2022-09-23T12:46:49.459Z,5.82
2022-09-23T12:47:51.376Z,4.90
2022-09-23T12:49:05.064Z,4.85
2022-09-23T12:50:46.724Z,4.18
2022-09-23T12:52:15.418Z,4.60
2022-09-23T12:53:55.629Z,4.90
2022-09-23T12:54:59.774Z,4.78
2022-09-23T12:56:14.223Z,3.95
2022-09-23T12:57:43.607Z,5.18
2022-09-23T12:59:16.707Z,5.40
2022-09-23T13:00:26.938Z,4.70
2022-09-23T13:01:37.758Z,4.38
2022-09-23T13:02:43.936Z,4.63
2022-09-23T13:04:05.274Z,4.75
2022-09-23T13:05:39.416Z,5.45
2022-09-23T13:06:44.063Z,5.10
2022-09-23T13:07:50.230Z,4.78
2022-09-23T13:08:54.224Z,5.10
2022-09-23T13:10:10.238Z,5.20
2022-09-23T13:11:23.740Z,5.30
2022-09-23T13:12:33.833Z,5.10
2022-09-23T13:13:40.957Z,5.35
2022-09-23T13:14:45.563Z,5.32
2022-09-23T13:15:50.299Z,4.57
2022-09-23T13:16:53.312Z,5.38
2022-09-23T13:18:25.288Z,4.60
2022-09-23T13:19:47.213Z,4.50
2022-09-23T13:20:51.456Z,6.25
2022-09-23T13:22:09.280Z,6.28
2022-09-23T13:23:22.415Z,4.88
2022-09-23T13:24:46.378Z,5.15
2022-09-23T13:25:51.505Z,4.03
2022-09-23T13:26:57.466Z,4.30
2022-09-23T13:28:04.180Z,5.15
2022-09-23T13:29:17.335Z,5.30
2022-09-23T13:30:26.120Z,5.38
2022-09-23T13:31:28.708Z,4.35
2022-09-23T13:32:34.375Z,5.40
2022-09-23T13:33:45.836Z,5.88
2022-09-23T13:34:59.054Z,4.32
2022-09-23T13:36:05.964Z,4.63
2022-09-23T13:37:22.897Z,4.32
2022-09-23T13:38:29.753Z,5.15
2022-09-23T13:39:31.969Z,4.75
2022-09-23T13:40:36.285Z,6.45
2022-09-23T13:41:38.576Z,5.43
2022-09-23T13:42:42.390Z,4.72
2022-09-23T13:43:49.139Z,5.20
2022-09-23T13:44:57.485Z,4.95
2022-09-23T13:46:05.361Z,4.47
2022-09-23T13:47:14.698Z,4.90
2022-09-23T13:48:18.185Z,4.50
2022-09-23T13:49:24.431Z,4.57
2022-09-23T13:50:34.143Z,4.65
2022-09-23T13:51:38.154Z,3.78
2022-09-23T13:52:40.316Z,4.22
2022-09-23T13:53:43.224Z,4.72
2022-09-23T13:54:48.983Z,5.53
2022-09-23T13:56:01.616Z,5.40
2022-09-23T13:57:04.951Z,5.05
2022-09-23T13:58:17.332Z,4.90
2022-09-23T13:59:26.518Z,5.03
2022-09-23T14:00:35.550Z,5.00
2022-09-23T14:01:38.637Z,5.20
2022-09-23T14:02:42.801Z,5.63
2022-09-23T14:03:45.882Z,4.25
2022-09-23T14:04:50.081Z,4.88
2022-09-23T14:05:54.271Z,4.15
2022-09-23T14:06:57.737Z,5.20
2022-09-23T14:08:00.326Z,5.00
2022-09-23T14:09:03.966Z,4.63
2022-09-23T14:10:08.172Z,4.82
2022-09-23T14:11:16.601Z,4.78
2022-09-23T14:12:22.366Z,3.70
2022-09-23T14:13:28.639Z,3.47
2022-09-23T14:14:32.671Z,3.35
2022-09-23T14:15:37.530Z,3.22
2022-09-23T14:16:42.397Z,2.65
2022-09-23T14:17:47.501Z,3.65
2022-09-23T14:18:53.164Z,3.40
2022-09-23T14:19:55.228Z,3.72
2022-09-23T14:20:58.228Z,3.95
2022-09-23T14:22:00.467Z,3.70
2022-09-23T14:23:07.561Z,3.28
2022-09-23T14:24:18.423Z,4.00
2022-09-23T14:25:21.867Z,3.65
2022-09-23T14:26:25.619Z,3.30
2022-09-23T14:27:30.008Z,3.33
2022-09-23T14:28:33.279Z,2.83
2022-09-23T14:29:37.723Z,2.88
2022-09-23T14:30:43.089Z,3.75
2022-09-23T14:31:57.678Z,3.17
2022-09-23T14:33:00.075Z,3.33
2022-09-23T14:34:03.143Z,3.05
2022-09-23T14:35:18.780Z,3.22
2022-09-23T14:36:40.291Z,3.50
2022-09-23T14:38:09.414Z,3.17
2022-09-23T14:39:13.895Z,2.85
2022-09-23T14:40:18.069Z,3.45
2022-09-23T14:41:24.863Z,3.20
2022-09-23T14:42:27.873Z,3.17
2022-09-23T14:43:30.942Z,3.10
2022-09-23T14:44:35.590Z,3.13
2022-09-23T14:45:40.968Z,3.35
2022-09-23T14:46:56.851Z,3.75
2022-09-23T14:48:01.971Z,3.17
2022-09-23T14:49:08.138Z,3.22
2022-09-23T14:50:34.720Z,3.13
2022-09-23T14:51:47.861Z,3.03
2022-09-23T14:52:51.425Z,2.85
2022-09-23T14:53:54.296Z,3.20
2022-09-23T14:54:57.275Z,2.80
2022-09-23T14:56:12.272Z,3.60
2022-09-23T14:57:29.478Z,3.05
2022-09-23T14:58:42.107Z,3.53
2022-09-23T14:59:52.152Z,3.40